Bynum, Montana
Current Conditions -  °F | °C
As of 6:56 AM on Wednesday 22 Oct 2014 (Local Time) from KCTB Reporting Station
Clear Clear  
Wind Chill: 36°   Ceiling: Unl
Heat Index: 44°   Visibility: 10mi
Dew Point: 31°   Wind: 18mph
Humidity: 60%   Direction: 250°WSW
Pressure: 29.88"   Gusts: NA
Location:  47.98°N, 112.31°W
Report Text: KCTB 221256Z AUTO 25016KT 10SM CLR 07/M01 A2988 RMK AO2 SLP122 T00671006
Loading
Personal Weather Stations






























Interactive Weather Map
Tropical Storm Tracking
New forecast layout! Learn more

10-Day Weather Forecast

Advertisements
Track Severe Weather on mobile